sensor_id;sensor_type;location;lat;lon;timestamp;temperature;humidity
15152;DHT22;7676;50.900;6.234;2023-04-08T00:02:29;11.00;99.90
15152;DHT22;7676;50.900;6.234;2023-04-08T00:17:32;11.20;99.90
15152;DHT22;7676;50.900;6.234;2023-04-08T00:32:35;11.40;99.90
15152;DHT22;7676;50.900;6.234;2023-04-08T00:47:37;11.30;99.90
15152;DHT22;7676;50.900;6.234;2023-04-08T01:02:56;11.10;99.90
15152;DHT22;7676;50.900;6.234;2023-04-08T01:18:05;11.10;99.90
15152;DHT22;7676;50.900;6.234;2023-04-08T01:33:13;11.10;99.90
15152;DHT22;7676;50.900;6.234;2023-04-08T01:48:16;11.20;99.90
15152;DHT22;7676;50.900;6.234;2023-04-08T02:03:21;11.10;99.90
15152;DHT22;7676;50.900;6.234;2023-04-08T02:18:25;11.20;99.90
15152;DHT22;7676;50.900;6.234;2023-04-08T02:33:33;11.30;99.90
15152;DHT22;7676;50.900;6.234;2023-04-08T02:48:36;11.10;99.90
15152;DHT22;7676;50.900;6.234;2023-04-08T03:03:39;11.10;99.90
15152;DHT22;7676;50.900;6.234;2023-04-08T03:18:42;11.00;99.90
15152;DHT22;7676;50.900;6.234;2023-04-08T03:33:44;11.00;99.90
15152;DHT22;7676;50.900;6.234;2023-04-08T03:48:47;10.90;99.90
15152;DHT22;7676;50.900;6.234;2023-04-08T04:03:50;10.90;99.90
15152;DHT22;7676;50.900;6.234;2023-04-08T04:18:53;11.00;99.90
15152;DHT22;7676;50.900;6.234;2023-04-08T04:33:56;10.90;99.90
15152;DHT22;7676;50.900;6.234;2023-04-08T04:48:59;10.90;99.90
15152;DHT22;7676;50.900;6.234;2023-04-08T05:04:01;11.00;99.90
15152;DHT22;7676;50.900;6.234;2023-04-08T05:19:04;10.80;99.90
15152;DHT22;7676;50.900;6.234;2023-04-08T05:34:06;10.60;99.90
15152;DHT22;7676;50.900;6.234;2023-04-08T05:49:09;10.30;99.90
15152;DHT22;7676;50.900;6.234;2023-04-08T06:04:11;10.40;99.90
15152;DHT22;7676;50.900;6.234;2023-04-08T06:19:14;10.20;99.90
15152;DHT22;7676;50.900;6.234;2023-04-08T06:34:16;10.20;99.90
15152;DHT22;7676;50.900;6.234;2023-04-08T06:49:19;10.20;99.90
15152;DHT22;7676;50.900;6.234;2023-04-08T07:04:21;10.20;99.90
15152;DHT22;7676;50.900;6.234;2023-04-08T07:19:24;9.90;99.90
15152;DHT22;7676;50.900;6.234;2023-04-08T07:34:27;9.60;99.90
15152;DHT22;7676;50.900;6.234;2023-04-08T07:49:29;9.50;99.90
15152;DHT22;7676;50.900;6.234;2023-04-08T08:04:32;10.20;99.90
15152;DHT22;7676;50.900;6.234;2023-04-08T08:19:35;10.30;99.90
15152;DHT22;7676;50.900;6.234;2023-04-08T08:34:37;10.60;99.90
15152;DHT22;7676;50.900;6.234;2023-04-08T08:49:40;10.90;99.90
15152;DHT22;7676;50.900;6.234;2023-04-08T09:04:55;11.40;99.90
15152;DHT22;7676;50.900;6.234;2023-04-08T09:20:11;11.50;99.90
15152;DHT22;7676;50.900;6.234;2023-04-08T09:35:14;11.90;99.90
15152;DHT22;7676;50.900;6.234;2023-04-08T09:50:30;12.20;99.90
15152;DHT22;7676;50.900;6.234;2023-04-08T10:05:37;12.20;99.90
15152;DHT22;7676;50.900;6.234;2023-04-08T10:20:42;12.60;99.90
15152;DHT22;7676;50.900;6.234;2023-04-08T10:35:52;12.50;99.90
15152;DHT22;7676;50.900;6.234;2023-04-08T11:06:02;13.10;99.90
15152;DHT22;7676;50.900;6.234;2023-04-08T11:21:09;13.10;99.90
15152;DHT22;7676;50.900;6.234;2023-04-08T11:36:11;12.90;99.90
15152;DHT22;7676;50.900;6.234;2023-04-08T11:51:14;13.50;99.90
15152;DHT22;7676;50.900;6.234;2023-04-08T12:06:17;13.00;99.90
15152;DHT22;7676;50.900;6.234;2023-04-08T12:21:19;13.20;99.90
15152;DHT22;7676;50.900;6.234;2023-04-08T12:36:22;12.60;99.90
15152;DHT22;7676;50.900;6.234;2023-04-08T12:51:25;13.20;99.90
15152;DHT22;7676;50.900;6.234;2023-04-08T13:06:27;13.00;99.90
15152;DHT22;7676;50.900;6.234;2023-04-08T13:21:30;12.70;99.90
15152;DHT22;7676;50.900;6.234;2023-04-08T13:36:33;12.60;99.90
15152;DHT22;7676;50.900;6.234;2023-04-08T13:51:36;13.00;99.90
15152;DHT22;7676;50.900;6.234;2023-04-08T14:06:38;13.10;99.90
15152;DHT22;7676;50.900;6.234;2023-04-08T14:21:41;12.80;99.90
15152;DHT22;7676;50.900;6.234;2023-04-08T14:36:57;13.00;99.90
15152;DHT22;7676;50.900;6.234;2023-04-08T14:52:00;12.30;99.90
15152;DHT22;7676;50.900;6.234;2023-04-08T15:07:02;12.00;99.90
15152;DHT22;7676;50.900;6.234;2023-04-08T15:22:05;12.30;99.90
15152;DHT22;7676;50.900;6.234;2023-04-08T15:37:07;12.30;99.90
15152;DHT22;7676;50.900;6.234;2023-04-08T15:52:10;12.20;99.90
15152;DHT22;7676;50.900;6.234;2023-04-08T16:07:13;11.90;99.90
15152;DHT22;7676;50.900;6.234;2023-04-08T16:22:15;11.60;99.90
15152;DHT22;7676;50.900;6.234;2023-04-08T16:37:17;11.70;99.90
15152;DHT22;7676;50.900;6.234;2023-04-08T16:52:20;11.50;99.90
15152;DHT22;7676;50.900;6.234;2023-04-08T17:07:23;11.70;99.90
15152;DHT22;7676;50.900;6.234;2023-04-08T17:22:29;11.30;99.90
15152;DHT22;7676;50.900;6.234;2023-04-08T17:37:31;11.60;99.90
15152;DHT22;7676;50.900;6.234;2023-04-08T17:52:34;11.80;99.90
15152;DHT22;7676;50.900;6.234;2023-04-08T18:07:36;12.00;99.90
15152;DHT22;7676;50.900;6.234;2023-04-08T18:22:38;12.00;99.90
15152;DHT22;7676;50.900;6.234;2023-04-08T18:37:41;11.70;99.90
15152;DHT22;7676;50.900;6.234;2023-04-08T18:52:44;12.00;99.90
15152;DHT22;7676;50.900;6.234;2023-04-08T19:07:47;12.50;99.90
15152;DHT22;7676;50.900;6.234;2023-04-08T19:22:49;11.90;99.90
15152;DHT22;7676;50.900;6.234;2023-04-08T19:37:52;11.50;99.90
15152;DHT22;7676;50.900;6.234;2023-04-08T19:52:55;11.60;99.90
15152;DHT22;7676;50.900;6.234;2023-04-08T20:07:58;11.10;99.90
15152;DHT22;7676;50.900;6.234;2023-04-08T20:23:00;11.30;99.90
15152;DHT22;7676;50.900;6.234;2023-04-08T20:38:06;10.80;99.90
15152;DHT22;7676;50.900;6.234;2023-04-08T20:53:09;10.60;99.90
15152;DHT22;7676;50.900;6.234;2023-04-08T21:08:14;10.60;99.90
15152;DHT22;7676;50.900;6.234;2023-04-08T21:23:17;11.40;99.90
15152;DHT22;7676;50.900;6.234;2023-04-08T21:38:19;11.20;99.90
15152;DHT22;7676;50.900;6.234;2023-04-08T21:53:22;10.80;99.90
15152;DHT22;7676;50.900;6.234;2023-04-08T22:08:26;11.10;99.90
15152;DHT22;7676;50.900;6.234;2023-04-08T22:23:49;9.80;99.90
15152;DHT22;7676;50.900;6.234;2023-04-08T22:38:51;10.90;99.90
15152;DHT22;7676;50.900;6.234;2023-04-08T22:53:54;11.10;99.90
15152;DHT22;7676;50.900;6.234;2023-04-08T23:08:57;11.80;99.90
15152;DHT22;7676;50.900;6.234;2023-04-08T23:23:59;12.20;99.90
15152;DHT22;7676;50.900;6.234;2023-04-08T23:39:02;12.20;99.90
15152;DHT22;7676;50.900;6.234;2023-04-08T23:54:05;12.20;99.90
